createdAt,value
2022-08-01T00:00:10.748Z,20.79
2022-08-01T00:02:39.495Z,20.68
2022-08-01T00:05:09.157Z,20.50
2022-08-01T00:07:38.105Z,20.36
2022-08-01T00:10:10.050Z,20.50
2022-08-01T00:12:38.173Z,20.42
2022-08-01T00:15:08.706Z,20.44
2022-08-01T00:17:37.158Z,20.24
2022-08-01T00:20:07.629Z,20.34
2022-08-01T00:22:40.899Z,20.27
2022-08-01T00:25:10.167Z,19.79
2022-08-01T00:27:39.472Z,19.83
2022-08-01T00:30:10.757Z,20.23
2022-08-01T00:32:44.160Z,20.17
2022-08-01T00:35:12.605Z,20.10
2022-08-01T00:37:41.075Z,20.11
2022-08-01T00:40:10.127Z,20.04
2022-08-01T00:42:43.291Z,20.02
2022-08-01T00:45:13.228Z,19.94
2022-08-01T00:47:41.624Z,19.93
2022-08-01T00:50:11.013Z,19.92
2022-08-01T00:52:40.829Z,19.96
2022-08-01T00:55:10.216Z,19.93
2022-08-01T00:58:05.161Z,19.79
2022-08-01T01:00:52.049Z,19.11
2022-08-01T01:03:43.332Z,18.81
2022-08-01T01:06:28.120Z,18.64
2022-08-01T01:09:08.371Z,18.36
2022-08-01T01:11:53.472Z,18.58
2022-08-01T01:14:32.270Z,18.66
2022-08-01T01:17:02.220Z,18.16
2022-08-01T01:19:32.647Z,18.43
2022-08-01T01:22:08.304Z,18.67
2022-08-01T01:24:56.240Z,18.56
2022-08-01T01:27:41.276Z,18.60
2022-08-01T01:30:09.718Z,18.85
2022-08-01T01:32:41.221Z,19.09
2022-08-01T01:35:16.704Z,19.50
2022-08-01T01:37:45.918Z,19.24
2022-08-01T01:40:15.732Z,19.29
2022-08-01T01:42:44.739Z,19.28
2022-08-01T01:45:13.239Z,19.47
2022-08-01T01:47:42.968Z,19.31
2022-08-01T01:50:12.459Z,19.65
2022-08-01T01:52:43.553Z,19.33
2022-08-01T01:55:15.617Z,19.26
2022-08-01T01:57:45.939Z,19.10
2022-08-01T02:00:16.365Z,19.10
2022-08-01T02:02:48.040Z,19.28
2022-08-01T02:05:17.895Z,19.40
2022-08-01T02:07:52.855Z,19.51
2022-08-01T02:10:34.358Z,19.42
2022-08-01T02:13:06.012Z,19.36
2022-08-01T02:15:59.799Z,19.17
2022-08-01T02:18:31.772Z,19.18
2022-08-01T02:21:05.601Z,19.24
2022-08-01T02:23:35.295Z,19.28
2022-08-01T02:26:11.415Z,19.32
2022-08-01T02:29:02.270Z,19.11
2022-08-01T02:31:32.284Z,18.90
2022-08-01T02:34:03.539Z,19.28
2022-08-01T02:36:35.560Z,19.06
2022-08-01T02:39:07.972Z,18.92
2022-08-01T02:41:44.012Z,18.95
2022-08-01T02:44:19.333Z,18.60
2022-08-01T02:46:53.503Z,18.78
2022-08-01T02:49:22.634Z,18.94
2022-08-01T02:51:52.362Z,18.99
2022-08-01T02:54:22.640Z,19.07
2022-08-01T02:56:53.003Z,18.97
2022-08-01T02:59:26.645Z,18.89
2022-08-01T03:01:56.727Z,18.91
2022-08-01T03:04:25.720Z,18.78
2022-08-01T03:06:55.755Z,18.98
2022-08-01T03:09:26.607Z,19.11
2022-08-01T03:11:58.205Z,19.05
2022-08-01T03:14:28.031Z,18.76
2022-08-01T03:16:57.487Z,18.72
2022-08-01T03:19:27.679Z,18.63
2022-08-01T03:21:57.199Z,19.01
2022-08-01T03:24:26.991Z,18.52
2022-08-01T03:26:57.751Z,18.82
2022-08-01T03:29:28.953Z,18.64
2022-08-01T03:31:56.919Z,18.79
2022-08-01T03:34:25.202Z,19.00
2022-08-01T03:37:05.015Z,18.79
2022-08-01T03:40:05.378Z,18.89
2022-08-01T03:42:35.853Z,18.76
2022-08-01T03:45:13.311Z,18.84
2022-08-01T03:47:44.817Z,18.77
2022-08-01T03:50:15.369Z,18.95
2022-08-01T03:52:45.091Z,18.86
2022-08-01T03:55:14.805Z,19.06
2022-08-01T03:57:44.312Z,18.97
2022-08-01T04:00:12.915Z,19.05
2022-08-01T04:02:42.890Z,18.97
2022-08-01T04:05:11.407Z,19.26
2022-08-01T04:07:44.263Z,19.22
2022-08-01T04:10:12.749Z,19.38
2022-08-01T04:12:41.519Z,19.64
2022-08-01T04:15:09.653Z,19.94
2022-08-01T04:17:38.582Z,19.89
2022-08-01T04:20:06.888Z,20.17
2022-08-01T04:22:37.333Z,20.09
2022-08-01T04:25:14.608Z,20.05
2022-08-01T04:27:50.021Z,20.00
2022-08-01T04:30:24.391Z,20.02
2022-08-01T04:32:54.246Z,19.56
2022-08-01T04:36:02.964Z,20.16
2022-08-01T04:38:13.894Z,20.19
2022-08-01T04:40:44.286Z,20.08
2022-08-01T04:43:14.895Z,19.92
2022-08-01T04:45:44.910Z,20.37
2022-08-01T04:48:14.782Z,20.43
2022-08-01T04:50:44.255Z,20.52
2022-08-01T04:53:18.015Z,20.62
2022-08-01T04:55:48.179Z,20.94
2022-08-01T04:58:18.449Z,20.77
2022-08-01T05:00:48.763Z,20.98
2022-08-01T05:03:18.184Z,21.22
2022-08-01T05:05:46.638Z,21.44
2022-08-01T05:08:15.598Z,21.15
2022-08-01T05:10:44.133Z,21.32
2022-08-01T05:13:12.448Z,21.53
2022-08-01T05:15:40.863Z,21.71
2022-08-01T05:18:09.590Z,21.34
2022-08-01T05:20:39.466Z,21.04
2022-08-01T05:23:15.273Z,21.29
2022-08-01T05:25:57.238Z,21.57
2022-08-01T05:28:26.793Z,21.56
2022-08-01T05:30:56.122Z,21.41
2022-08-01T05:33:24.196Z,21.79
2022-08-01T05:35:53.056Z,22.03
2022-08-01T05:38:21.513Z,21.75
2022-08-01T05:40:50.280Z,21.53
2022-08-01T05:43:19.171Z,21.65
2022-08-01T05:45:47.691Z,22.05
2022-08-01T05:48:15.371Z,22.17
2022-08-01T05:50:43.778Z,22.25
2022-08-01T05:53:13.514Z,22.38
2022-08-01T05:55:41.487Z,22.40
2022-08-01T05:58:12.512Z,22.59
2022-08-01T06:00:41.003Z,22.48
2022-08-01T06:03:09.134Z,22.67
2022-08-01T06:05:48.723Z,22.91
2022-08-01T06:08:22.196Z,23.16
2022-08-01T06:11:13.402Z,23.38
2022-08-01T06:14:10.150Z,23.16
2022-08-01T06:16:46.635Z,23.25
2022-08-01T06:19:34.766Z,23.65
2022-08-01T06:22:03.927Z,23.94
2022-08-01T06:24:36.447Z,23.92
2022-08-01T06:27:05.160Z,23.95
2022-08-01T06:33:37.353Z,24.31
2022-08-01T06:36:23.817Z,24.37
2022-08-01T06:39:06.987Z,24.56
2022-08-01T06:42:11.527Z,24.72
2022-08-01T06:45:12.373Z,25.03
2022-08-01T06:48:13.630Z,25.09
2022-08-01T06:50:49.609Z,25.15
2022-08-01T06:54:03.477Z,24.81
2022-08-01T06:56:41.209Z,24.69
2022-08-01T06:59:51.778Z,25.11
2022-08-01T07:02:48.763Z,24.81
2022-08-01T07:05:21.326Z,25.17
2022-08-01T07:07:50.986Z,25.42
2022-08-01T07:10:28.568Z,25.31
2022-08-01T07:36:29.831Z,26.31
2022-08-01T07:39:45.109Z,26.41
2022-08-01T07:42:34.163Z,26.97
2022-08-01T07:45:34.385Z,27.14
2022-08-01T08:11:30.141Z,27.33
2022-08-01T08:14:02.030Z,27.61
2022-08-01T08:16:30.312Z,28.02
2022-08-01T08:19:00.689Z,27.86
2022-08-01T08:21:29.659Z,27.96
2022-08-01T08:24:18.948Z,27.85
2022-08-01T08:26:54.428Z,28.02
2022-08-01T08:29:25.529Z,28.00
2022-08-01T08:31:57.394Z,28.05
2022-08-01T08:34:29.477Z,27.87
2022-08-01T08:36:59.450Z,28.04
2022-08-01T08:39:31.139Z,28.15
2022-08-01T08:42:12.174Z,28.23
2022-08-01T08:44:43.594Z,28.19
2022-08-01T08:47:21.286Z,28.19
2022-08-01T08:49:55.547Z,28.10
2022-08-01T08:52:24.356Z,28.08
2022-08-01T08:54:53.891Z,28.22
2022-08-01T08:57:24.965Z,28.27
2022-08-01T08:59:58.211Z,28.35
2022-08-01T09:02:29.296Z,28.42
2022-08-01T09:05:03.878Z,28.50
2022-08-01T09:07:32.820Z,28.48
2022-08-01T09:10:04.171Z,28.62
2022-08-01T09:12:32.179Z,28.61
2022-08-01T09:15:00.700Z,28.71
2022-08-01T09:17:40.973Z,28.52
2022-08-01T09:20:23.808Z,28.69
2022-08-01T09:22:52.347Z,28.88
2022-08-01T09:25:23.440Z,28.96
2022-08-01T09:28:07.241Z,28.97
2022-08-01T09:30:42.342Z,28.94
2022-08-01T09:33:21.541Z,29.18
2022-08-01T09:35:58.769Z,29.08
2022-08-01T09:38:28.589Z,29.30
2022-08-01T09:41:01.435Z,29.30
2022-08-01T09:43:32.927Z,29.36
2022-08-01T09:46:05.174Z,29.15
2022-08-01T09:48:35.844Z,29.44
2022-08-01T09:51:09.321Z,29.56
2022-08-01T09:53:53.446Z,29.55
2022-08-01T09:56:23.685Z,29.56
2022-08-01T09:59:02.977Z,29.37
2022-08-01T10:01:44.905Z,29.60
2022-08-01T10:04:18.537Z,29.74
2022-08-01T10:06:53.510Z,30.08
2022-08-01T10:09:40.591Z,30.15
2022-08-01T10:12:15.875Z,30.16
2022-08-01T10:14:46.953Z,30.36
2022-08-01T10:17:20.986Z,30.54
2022-08-01T10:19:55.743Z,30.61
2022-08-01T10:22:29.355Z,30.64
2022-08-01T10:25:03.785Z,30.72
2022-08-01T10:27:37.893Z,30.68
2022-08-01T10:30:21.533Z,30.82
2022-08-01T10:32:55.442Z,30.91
2022-08-01T10:35:47.080Z,30.55
2022-08-01T10:38:16.009Z,30.91
2022-08-01T10:40:47.849Z,31.09
2022-08-01T10:43:21.770Z,31.18
2022-08-01T10:45:53.403Z,31.36
2022-08-01T10:48:26.970Z,31.56
2022-08-01T10:51:05.475Z,31.56
2022-08-01T10:53:56.226Z,31.57
2022-08-01T10:56:40.354Z,31.58
2022-08-01T10:59:11.607Z,31.79
2022-08-01T11:01:58.821Z,31.84
2022-08-01T11:05:00.187Z,31.56
2022-08-01T11:07:45.424Z,31.71
2022-08-01T11:11:06.889Z,31.71
2022-08-01T11:14:02.232Z,31.45
2022-08-01T11:16:53.222Z,31.68
2022-08-01T11:20:09.335Z,31.59
2022-08-01T11:23:02.167Z,31.52
2022-08-01T11:26:12.723Z,31.79
2022-08-01T11:29:19.065Z,31.76
2022-08-01T11:36:42.741Z,31.87
2022-08-01T11:39:48.830Z,31.87
2022-08-01T11:42:30.320Z,31.84
2022-08-01T11:45:15.507Z,31.85
2022-08-01T11:47:55.613Z,31.55
2022-08-01T11:50:37.228Z,31.63
2022-08-01T11:56:48.048Z,32.22
2022-08-01T12:04:11.071Z,32.77
2022-08-01T12:08:04.415Z,32.94
2022-08-01T12:14:54.791Z,33.59
2022-08-01T12:21:31.758Z,33.88
2022-08-01T12:24:25.099Z,33.34
2022-08-01T12:30:34.349Z,33.85
2022-08-01T12:33:24.381Z,33.70
2022-08-01T12:35:55.889Z,33.84
2022-08-01T12:38:28.181Z,33.90
2022-08-01T12:41:11.710Z,33.69
2022-08-01T12:43:41.655Z,33.78
2022-08-01T12:46:21.333Z,33.75
2022-08-01T12:48:54.183Z,33.90
2022-08-01T12:51:36.640Z,33.77
2022-08-01T12:54:23.526Z,33.84
2022-08-01T12:56:54.031Z,33.60
2022-08-01T12:59:26.165Z,34.06
2022-08-01T13:01:59.471Z,34.19
2022-08-01T13:04:28.822Z,34.05
2022-08-01T13:07:00.695Z,34.18
2022-08-01T13:09:33.834Z,34.45
2022-08-01T13:12:10.931Z,34.43
2022-08-01T13:14:44.056Z,34.40
2022-08-01T13:17:31.518Z,34.69
2022-08-01T13:20:03.406Z,34.48
2022-08-01T13:22:38.279Z,34.81
2022-08-01T13:25:16.085Z,34.72
2022-08-01T13:27:53.576Z,34.95
2022-08-01T13:30:24.234Z,34.65
2022-08-01T13:33:06.069Z,34.60
2022-08-01T13:35:41.057Z,34.43
2022-08-01T13:38:11.706Z,34.31
2022-08-01T13:40:42.196Z,34.67
2022-08-01T13:43:15.984Z,34.38
2022-08-01T13:45:52.112Z,34.55
2022-08-01T13:48:24.514Z,34.43
2022-08-01T13:51:22.240Z,34.27
2022-08-01T13:54:08.303Z,34.34
2022-08-01T13:56:48.919Z,34.57
2022-08-01T14:02:49.459Z,34.60
2022-08-01T14:05:30.133Z,34.67
2022-08-01T14:08:03.425Z,34.65
2022-08-01T14:10:37.699Z,34.62
2022-08-01T14:13:06.906Z,34.16
2022-08-01T14:15:41.830Z,33.77
2022-08-01T14:18:11.976Z,34.51
2022-08-01T14:20:40.280Z,34.40
2022-08-01T14:23:09.871Z,34.36
2022-08-01T14:26:02.914Z,33.91
2022-08-01T14:28:32.948Z,34.58
2022-08-01T14:31:03.904Z,34.87
2022-08-01T14:33:34.298Z,34.34
2022-08-01T14:36:30.788Z,34.50
2022-08-01T14:39:01.665Z,34.52
2022-08-01T14:41:31.153Z,34.60
2022-08-01T14:44:03.650Z,34.17
2022-08-01T14:46:33.878Z,34.61
2022-08-01T14:49:03.150Z,34.69
2022-08-01T14:51:35.617Z,34.47
2022-08-01T14:54:06.783Z,34.08
2022-08-01T14:56:36.304Z,34.18
2022-08-01T14:59:04.202Z,34.58
2022-08-01T15:01:43.208Z,34.68
2022-08-01T15:04:31.953Z,34.89
2022-08-01T15:07:10.500Z,34.92
2022-08-01T15:09:45.053Z,34.45
2022-08-01T15:12:13.542Z,34.79
2022-08-01T15:14:49.406Z,34.97
2022-08-01T15:17:22.611Z,34.66
2022-08-01T15:19:54.194Z,34.97
2022-08-01T15:22:24.567Z,34.92
2022-08-01T15:24:58.498Z,34.52
2022-08-01T15:27:27.976Z,34.74
2022-08-01T15:29:57.480Z,34.85
2022-08-01T15:32:27.753Z,35.03
2022-08-01T15:34:55.645Z,35.09
2022-08-01T15:37:26.885Z,35.11
2022-08-01T15:39:56.731Z,35.04
2022-08-01T15:42:25.556Z,35.09
2022-08-01T15:44:55.721Z,34.51
2022-08-01T15:47:25.017Z,34.77
2022-08-01T15:50:00.905Z,34.91
2022-08-01T15:52:31.659Z,35.05
2022-08-01T15:55:00.623Z,34.58
2022-08-01T15:57:31.027Z,34.67
2022-08-01T15:59:59.330Z,34.89
2022-08-01T16:02:27.576Z,34.72
2022-08-01T16:04:58.751Z,34.62
2022-08-01T16:07:29.186Z,34.55
2022-08-01T16:10:18.178Z,34.35
2022-08-01T16:12:49.272Z,33.75
2022-08-01T16:15:19.081Z,33.55
2022-08-01T16:17:47.241Z,33.33
2022-08-01T16:20:31.676Z,33.74
2022-08-01T16:23:03.461Z,33.59
2022-08-01T16:25:36.290Z,33.82
2022-08-01T16:28:04.621Z,33.60
2022-08-01T16:30:34.105Z,33.38
2022-08-01T16:33:14.807Z,33.65
2022-08-01T16:35:51.510Z,33.71
2022-08-01T16:38:25.681Z,33.56
2022-08-01T16:40:57.028Z,33.57
2022-08-01T16:43:26.516Z,33.32
2022-08-01T16:45:57.601Z,33.59
2022-08-01T16:48:27.066Z,33.27
2022-08-01T16:50:56.319Z,32.72
2022-08-01T16:53:32.634Z,33.16
2022-08-01T16:56:02.098Z,32.76
2022-08-01T16:58:30.172Z,32.77
2022-08-01T17:02:01.087Z,32.84
2022-08-01T17:03:53.841Z,32.95
2022-08-01T17:06:23.850Z,32.77
2022-08-01T17:08:53.561Z,32.72
2022-08-01T17:11:22.104Z,32.69
2022-08-01T17:13:50.243Z,32.83
2022-08-01T17:16:20.602Z,32.73
2022-08-01T17:18:49.042Z,32.94
2022-08-01T17:21:17.131Z,32.86
2022-08-01T17:23:45.613Z,32.69
2022-08-01T17:26:13.759Z,32.67
2022-08-01T17:28:41.687Z,32.41
2022-08-01T17:31:10.867Z,32.47
2022-08-01T17:33:44.877Z,32.45
2022-08-01T17:36:17.975Z,32.33
2022-08-01T17:38:48.576Z,32.09
2022-08-01T17:41:18.545Z,32.15
2022-08-01T17:43:46.792Z,32.12
2022-08-01T17:46:14.942Z,32.05
2022-08-01T17:48:44.611Z,32.03
2022-08-01T17:51:13.074Z,32.01
2022-08-01T17:53:55.474Z,31.70
2022-08-01T17:56:27.639Z,31.65
2022-08-01T17:58:56.717Z,31.54
2022-08-01T18:01:26.508Z,31.59
2022-08-01T18:03:57.604Z,31.51
2022-08-01T18:06:26.653Z,31.06
2022-08-01T18:08:56.681Z,31.34
2022-08-01T18:11:28.197Z,31.19
2022-08-01T18:13:59.448Z,31.06
2022-08-01T18:16:28.597Z,31.13
2022-08-01T18:18:57.770Z,31.15
2022-08-01T18:21:26.082Z,31.13
2022-08-01T18:23:54.187Z,30.92
2022-08-01T18:26:23.528Z,30.65
2022-08-01T18:28:51.974Z,30.83
2022-08-01T18:31:20.883Z,30.71
2022-08-01T18:33:50.190Z,30.76
2022-08-01T18:36:32.336Z,30.76
2022-08-01T18:39:10.485Z,30.62
2022-08-01T18:41:39.975Z,30.59
2022-08-01T18:44:10.275Z,30.56
2022-08-01T18:46:39.482Z,30.56
2022-08-01T18:49:10.067Z,30.45
2022-08-01T18:51:44.211Z,30.32
2022-08-01T18:54:17.220Z,30.35
2022-08-01T18:56:47.000Z,30.34
2022-08-01T18:59:14.783Z,30.13
2022-08-01T19:01:43.755Z,30.16
2022-08-01T19:04:13.503Z,29.86
2022-08-01T19:06:42.426Z,30.06
2022-08-01T19:09:11.220Z,29.93
2022-08-01T19:11:39.978Z,29.89
2022-08-01T19:14:08.270Z,29.66
2022-08-01T19:16:36.367Z,29.64
2022-08-01T19:19:07.002Z,29.47
2022-08-01T19:21:36.348Z,29.35
2022-08-01T19:24:23.602Z,29.39
2022-08-01T19:27:04.851Z,29.10
2022-08-01T19:29:39.490Z,29.09
2022-08-01T19:32:10.552Z,29.19
2022-08-01T19:34:50.513Z,29.31
2022-08-01T19:37:24.089Z,28.99
2022-08-01T19:39:57.482Z,29.17
2022-08-01T19:42:27.037Z,29.02
2022-08-01T19:44:55.618Z,29.06
2022-08-01T19:47:23.705Z,28.90
2022-08-01T19:49:51.690Z,28.62
2022-08-01T19:52:25.982Z,28.53
2022-08-01T19:54:58.084Z,28.68
2022-08-01T19:57:44.623Z,28.28
2022-08-01T20:00:27.687Z,28.54
2022-08-01T20:02:57.031Z,28.62
2022-08-01T20:05:25.275Z,28.60
2022-08-01T20:07:54.074Z,28.54
2022-08-01T20:10:23.680Z,28.64
2022-08-01T20:12:52.935Z,28.67
2022-08-01T20:15:23.006Z,28.47
2022-08-01T20:17:59.574Z,28.35
2022-08-01T20:20:28.893Z,28.39
2022-08-01T20:22:59.429Z,28.36
2022-08-01T20:25:40.283Z,28.17
2022-08-01T20:28:13.726Z,28.11
2022-08-01T20:30:44.067Z,28.10
2022-08-01T20:33:13.790Z,28.19
2022-08-01T20:35:52.079Z,28.24
2022-08-01T20:38:27.835Z,28.10
2022-08-01T20:41:02.604Z,28.14
2022-08-01T20:43:32.310Z,28.05
2022-08-01T20:46:00.844Z,27.91
2022-08-01T20:48:29.812Z,28.26
2022-08-01T20:51:14.970Z,28.20
2022-08-01T20:53:49.369Z,28.26
2022-08-01T20:56:28.149Z,28.17
2022-08-01T20:59:04.874Z,27.99
2022-08-01T21:01:44.896Z,27.74
2022-08-01T21:04:34.856Z,27.79
2022-08-01T21:07:10.207Z,27.89
2022-08-01T21:09:40.738Z,28.00
2022-08-01T21:12:17.190Z,27.92
2022-08-01T21:14:56.121Z,27.80
2022-08-01T21:17:34.098Z,27.92
2022-08-01T21:20:07.839Z,27.92
2022-08-01T21:22:41.113Z,27.69
2022-08-01T21:25:13.278Z,27.86
2022-08-01T21:27:41.904Z,27.54
2022-08-01T21:30:10.362Z,27.76
2022-08-01T21:32:40.876Z,27.61
2022-08-01T21:35:16.493Z,27.47
2022-08-01T21:37:52.693Z,27.42
2022-08-01T21:40:23.891Z,26.99
2022-08-01T21:42:54.321Z,27.15
2022-08-01T21:45:25.557Z,27.36
2022-08-01T21:47:54.775Z,27.18
2022-08-01T21:50:25.695Z,26.98
2022-08-01T21:53:22.149Z,26.92
2022-08-01T21:56:13.515Z,27.19
2022-08-01T21:59:10.670Z,27.10
2022-08-01T22:02:06.979Z,26.76
2022-08-01T22:04:54.315Z,27.10
2022-08-01T22:07:24.688Z,26.87
2022-08-01T22:09:54.419Z,27.13
2022-08-01T22:12:25.896Z,26.90
2022-08-01T22:15:06.192Z,26.94
2022-08-01T22:17:35.576Z,26.90
2022-08-01T22:20:09.883Z,27.03
2022-08-01T22:22:51.203Z,27.08
2022-08-01T22:25:25.368Z,27.19
2022-08-01T22:28:06.172Z,26.96
2022-08-01T22:30:42.731Z,27.20
2022-08-01T22:33:16.256Z,26.70
2022-08-01T22:35:53.402Z,26.46
2022-08-01T22:38:26.484Z,26.42
2022-08-01T22:41:08.407Z,26.50
2022-08-01T22:43:57.276Z,26.66
2022-08-01T22:46:47.273Z,26.99
2022-08-01T22:49:27.103Z,26.75
2022-08-01T22:52:05.308Z,26.38
2022-08-01T22:54:42.147Z,26.46
2022-08-01T22:57:26.254Z,26.44
2022-08-01T23:00:00.990Z,25.86
2022-08-01T23:02:33.028Z,25.53
2022-08-01T23:05:06.749Z,25.94
2022-08-01T23:07:39.616Z,26.24
2022-08-01T23:10:12.335Z,26.23
2022-08-01T23:12:44.424Z,26.15
2022-08-01T23:15:14.368Z,25.77
2022-08-01T23:17:48.953Z,25.61
2022-08-01T23:20:18.790Z,25.72
2022-08-01T23:22:51.864Z,25.51
2022-08-01T23:25:23.015Z,25.82
2022-08-01T23:28:05.366Z,25.68
2022-08-01T23:30:36.830Z,25.74
2022-08-01T23:33:08.342Z,25.45
2022-08-01T23:35:39.210Z,25.31
2022-08-01T23:38:10.288Z,25.19
2022-08-01T23:40:39.679Z,25.22
2022-08-01T23:43:16.577Z,25.22
2022-08-01T23:46:04.371Z,25.20
2022-08-01T23:48:34.848Z,25.49
2022-08-01T23:51:04.368Z,25.52
2022-08-01T23:53:38.632Z,25.37
2022-08-01T23:56:07.061Z,25.03
2022-08-01T23:58:36.035Z,25.08
